createdAt,value
2017-08-15T00:00:09.464Z,5.75
2017-08-15T00:02:36.147Z,5.87
2017-08-15T00:05:02.809Z,5.60
2017-08-15T00:07:29.498Z,5.28
2017-08-15T00:09:56.151Z,5.50
2017-08-15T00:12:22.840Z,6.32
2017-08-15T00:14:49.501Z,6.07
2017-08-15T00:17:16.187Z,6.03
2017-08-15T00:19:42.864Z,6.72
2017-08-15T00:22:09.554Z,5.87
2017-08-15T00:24:36.202Z,5.68
2017-08-15T00:27:02.892Z,5.75
2017-08-15T00:29:29.552Z,5.72
2017-08-15T00:31:56.211Z,5.22
2017-08-15T00:34:22.869Z,6.15
2017-08-15T00:36:49.526Z,5.80
2017-08-15T00:39:16.189Z,6.12
2017-08-15T00:41:42.853Z,5.47
2017-08-15T00:44:09.535Z,5.82
2017-08-15T00:46:36.186Z,6.00
2017-08-15T00:49:02.868Z,6.82
2017-08-15T00:51:29.524Z,6.00
2017-08-15T00:53:56.203Z,5.65
2017-08-15T00:56:22.865Z,6.00
2017-08-15T00:58:49.543Z,6.47
2017-08-15T01:01:16.204Z,6.22
2017-08-15T01:03:42.902Z,6.30
2017-08-15T01:06:09.568Z,6.70
2017-08-15T01:08:36.232Z,6.85
2017-08-15T01:11:02.888Z,6.43
2017-08-15T01:13:29.544Z,6.75
2017-08-15T01:15:56.199Z,7.45
2017-08-15T01:18:22.861Z,5.50
2017-08-15T01:20:49.552Z,6.10
2017-08-15T01:23:16.212Z,6.03
2017-08-15T01:25:42.891Z,6.03
2017-08-15T01:28:09.543Z,6.22
2017-08-15T01:30:36.238Z,6.78
2017-08-15T01:33:02.900Z,6.00
2017-08-15T01:35:29.555Z,6.70
2017-08-15T01:37:56.211Z,6.05
2017-08-15T01:40:22.859Z,6.62
2017-08-15T01:42:49.539Z,6.10
2017-08-15T01:45:17.204Z,6.35
2017-08-15T01:47:43.886Z,7.10
2017-08-15T01:50:10.543Z,7.20
2017-08-15T01:52:37.228Z,6.65
2017-08-15T01:55:03.887Z,6.53
2017-08-15T02:07:03.397Z,6.35
2017-08-15T02:15:52.316Z,7.30
2017-08-15T02:18:19.473Z,7.07
2017-08-15T02:20:51.057Z,6.12
2017-08-15T02:23:21.564Z,6.97
2017-08-15T02:25:58.475Z,8.10
2017-08-15T02:28:26.796Z,6.80
2017-08-15T02:30:58.260Z,6.37
2017-08-15T02:33:27.041Z,6.57
2017-08-15T02:35:53.812Z,6.60
2017-08-15T02:38:21.509Z,6.68
2017-08-15T02:40:50.587Z,6.55
2017-08-15T02:43:18.858Z,7.12
2017-08-15T02:45:46.930Z,6.78
2017-08-15T02:48:18.720Z,6.70
2017-08-15T02:50:45.560Z,6.40
2017-08-15T02:53:12.953Z,6.65
2017-08-15T02:55:56.876Z,6.72
2017-08-15T02:58:24.373Z,7.20
2017-08-15T03:00:52.429Z,7.05
2017-08-15T03:03:19.863Z,7.18
2017-08-15T03:18:24.625Z,6.93
2017-08-15T03:20:52.359Z,7.00
2017-08-15T03:23:21.338Z,7.55
2017-08-15T03:25:48.377Z,6.55
2017-08-15T03:28:15.940Z,7.28
2017-08-15T03:30:42.748Z,6.60
2017-08-15T03:39:35.697Z,7.35
2017-08-15T03:48:21.800Z,6.93
2017-08-15T03:50:56.619Z,7.50
2017-08-15T03:53:25.392Z,7.87
2017-08-15T03:55:52.137Z,7.68
2017-08-15T03:58:25.916Z,6.65
2017-08-15T04:04:08.099Z,7.35
2017-08-15T04:06:36.851Z,7.90
2017-08-15T04:09:11.100Z,8.10
2017-08-15T04:11:37.929Z,8.20
2017-08-15T04:17:12.241Z,8.20
2017-08-15T04:19:40.061Z,7.20
2017-08-15T04:22:25.325Z,7.45
2017-08-15T04:24:52.154Z,7.55
2017-08-15T04:27:19.510Z,7.90
2017-08-15T04:29:49.994Z,7.55
2017-08-15T04:32:17.378Z,8.10
2017-08-15T04:53:52.429Z,7.95
2017-08-15T04:56:20.155Z,7.75
2017-08-15T04:58:55.371Z,7.37
2017-08-15T05:03:54.672Z,7.22
2017-08-15T05:06:21.530Z,7.80
2017-08-15T05:08:48.982Z,7.40
2017-08-15T05:11:16.357Z,7.37
2017-08-15T05:13:46.024Z,7.47
2017-08-15T05:19:26.276Z,7.30
2017-08-15T05:21:58.144Z,6.53
2017-08-15T05:24:28.294Z,7.25
2017-08-15T05:26:59.010Z,7.37
2017-08-15T05:29:40.613Z,7.55
2017-08-15T05:32:07.725Z,7.15
2017-08-15T05:39:41.176Z,7.87
2017-08-15T05:42:08.757Z,7.60
2017-08-15T05:44:36.511Z,7.03
2017-08-15T05:47:03.228Z,7.50
2017-08-15T05:49:30.982Z,7.68
2017-08-15T05:51:59.285Z,7.93
2017-08-15T05:54:26.862Z,7.12
2017-08-15T06:00:29.781Z,7.60
2017-08-15T06:02:56.547Z,7.30
2017-08-15T06:05:23.372Z,7.60
2017-08-15T06:07:50.225Z,7.03
2017-08-15T06:10:17.016Z,7.03
2017-08-15T06:12:43.765Z,7.53
2017-08-15T06:15:10.625Z,6.90
2017-08-15T06:17:37.389Z,6.40
2017-08-15T06:20:04.229Z,6.40
2017-08-15T06:47:21.032Z,5.30
2017-08-15T06:49:47.723Z,5.80
2017-08-15T06:52:14.405Z,6.60
2017-08-15T06:54:41.126Z,6.30
2017-08-15T06:57:07.832Z,5.80
2017-08-15T06:59:34.612Z,6.17
2017-08-15T07:02:01.279Z,5.90
2017-08-15T07:04:27.983Z,5.77
2017-08-15T07:06:54.656Z,6.13
2017-08-15T07:09:21.368Z,7.20
2017-08-15T07:11:48.043Z,5.07
2017-08-15T07:14:14.744Z,5.90
2017-08-15T07:16:41.416Z,5.80
2017-08-15T07:19:08.106Z,5.90
2017-08-15T07:21:34.791Z,5.93
2017-08-15T07:24:01.477Z,5.90
2017-08-15T07:26:28.439Z,4.90
2017-08-15T07:28:55.353Z,6.03
2017-08-15T07:31:22.062Z,5.83
2017-08-15T07:33:48.752Z,5.37
2017-08-15T07:36:15.456Z,5.50
2017-08-15T07:38:42.144Z,6.27
2017-08-15T07:41:09.481Z,5.20
2017-08-15T07:43:36.356Z,5.63
2017-08-15T07:46:03.051Z,5.53
2017-08-15T07:48:29.728Z,6.13
2017-08-15T07:50:56.421Z,6.17
2017-08-15T07:53:23.099Z,5.47
2017-08-15T07:55:49.784Z,5.30
2017-08-15T07:58:16.455Z,5.70
2017-08-15T08:00:43.135Z,5.70
2017-08-15T08:03:09.845Z,5.30
2017-08-15T08:05:36.532Z,5.40
2017-08-15T08:08:03.246Z,5.03
2017-08-15T08:10:29.932Z,4.73
2017-08-15T08:12:56.708Z,4.50
2017-08-15T08:15:23.381Z,4.90
2017-08-15T08:17:50.112Z,4.90
2017-08-15T08:20:16.790Z,5.20
2017-08-15T08:22:43.498Z,5.60
2017-08-15T08:25:10.200Z,4.50
2017-08-15T08:27:36.885Z,5.33
2017-08-15T08:30:03.591Z,4.70
2017-08-15T08:32:30.296Z,5.40
2017-08-15T08:34:56.974Z,5.23
2017-08-15T08:37:23.710Z,5.60
2017-08-15T08:39:52.476Z,4.90
2017-08-15T08:42:19.763Z,5.20
2017-08-15T08:44:46.440Z,4.60
2017-08-15T08:47:13.204Z,5.50
2017-08-15T08:49:40.169Z,5.10
2017-08-15T08:52:06.899Z,4.80
2017-08-15T08:54:33.832Z,4.80
2017-08-15T08:57:00.515Z,4.57
2017-08-15T08:59:27.216Z,5.10
2017-08-15T09:01:53.909Z,4.90
2017-08-15T09:04:20.629Z,5.57
2017-08-15T09:06:47.297Z,5.20
2017-08-15T09:09:13.981Z,4.70
2017-08-15T09:11:40.660Z,5.30
2017-08-15T09:14:07.451Z,5.20
2017-08-15T09:16:34.131Z,5.00
2017-08-15T09:19:00.813Z,4.70
2017-08-15T09:21:27.487Z,5.07
2017-08-15T09:23:54.180Z,5.47
2017-08-15T09:26:20.891Z,5.40
2017-08-15T09:28:53.331Z,5.10
2017-08-15T09:31:20.028Z,5.40
2017-08-15T09:33:46.710Z,5.90
2017-08-15T09:36:13.417Z,4.93
2017-08-15T09:38:40.124Z,5.23
2017-08-15T09:41:07.471Z,5.57
2017-08-15T09:43:34.503Z,5.50
2017-08-15T09:46:01.172Z,5.30
2017-08-15T09:48:27.857Z,5.23
2017-08-15T09:50:54.668Z,5.70
2017-08-15T09:53:21.336Z,5.43
2017-08-15T09:55:48.004Z,5.30
2017-08-15T09:58:20.493Z,5.70
2017-08-15T10:00:47.168Z,5.57
2017-08-15T10:03:13.876Z,4.93
2017-08-15T10:05:40.546Z,5.73
2017-08-15T10:08:07.254Z,4.90
2017-08-15T10:10:33.984Z,5.20
2017-08-15T10:13:00.759Z,5.40
2017-08-15T10:15:27.420Z,5.93
2017-08-15T10:17:54.120Z,5.33
2017-08-15T10:20:20.801Z,5.07
2017-08-15T10:22:47.475Z,5.47
2017-08-15T10:25:14.148Z,5.73
2017-08-15T10:27:40.828Z,5.40
2017-08-15T10:30:07.520Z,5.40
2017-08-15T10:32:34.194Z,5.07
2017-08-15T10:35:00.870Z,5.93
2017-08-15T10:37:27.542Z,5.60
2017-08-15T10:39:54.233Z,5.80
2017-08-15T10:42:20.908Z,5.17
2017-08-15T10:44:47.580Z,4.90
2017-08-15T10:47:14.248Z,5.27
2017-08-15T10:49:40.979Z,5.27
2017-08-15T10:52:07.660Z,5.57
2017-08-15T10:54:34.369Z,5.03
2017-08-15T10:57:01.051Z,5.20
2017-08-15T10:59:27.753Z,5.70
2017-08-15T11:01:54.431Z,5.20
2017-08-15T11:04:21.109Z,5.53
2017-08-15T11:06:47.804Z,5.63
2017-08-15T11:09:14.499Z,5.67
2017-08-15T11:11:41.193Z,4.80
2017-08-15T11:14:07.876Z,4.80
2017-08-15T11:16:34.562Z,4.70
2017-08-15T11:19:01.231Z,4.17
2017-08-15T11:21:27.900Z,4.27
2017-08-15T11:23:54.567Z,4.30
2017-08-15T11:26:21.237Z,4.30
2017-08-15T11:28:47.910Z,3.60
2017-08-15T11:31:14.582Z,4.20
2017-08-15T11:33:41.274Z,3.50
2017-08-15T11:36:07.955Z,3.97
2017-08-15T11:38:34.664Z,4.17
2017-08-15T11:41:01.402Z,3.60
2017-08-15T11:43:28.072Z,3.70
2017-08-15T11:45:54.748Z,4.27
2017-08-15T11:48:21.430Z,3.77
2017-08-15T11:50:48.116Z,4.03
2017-08-15T11:53:14.791Z,3.80
2017-08-15T11:55:41.459Z,3.73
2017-08-15T11:58:08.136Z,3.67
2017-08-15T12:00:34.848Z,4.03
2017-08-15T12:03:01.524Z,4.00
2017-08-15T12:05:28.195Z,3.70
2017-08-15T12:07:54.884Z,4.20
2017-08-15T12:10:21.558Z,4.03
2017-08-15T12:12:48.285Z,4.17
2017-08-15T12:15:14.962Z,4.37
2017-08-15T12:17:41.659Z,4.40
2017-08-15T12:20:08.354Z,4.57
2017-08-15T12:22:35.129Z,5.10
2017-08-15T12:25:01.798Z,5.07
2017-08-15T12:27:28.489Z,4.60
2017-08-15T12:29:55.206Z,4.13
2017-08-15T12:32:21.876Z,4.63
2017-08-15T12:34:48.590Z,4.67
2017-08-15T12:37:15.289Z,4.60
2017-08-15T12:39:42.012Z,4.47
2017-08-15T12:42:08.704Z,5.43
2017-08-15T12:44:35.399Z,4.17
2017-08-15T12:47:02.068Z,4.20
2017-08-15T12:49:28.777Z,4.33
2017-08-15T12:51:55.451Z,4.40
2017-08-15T12:54:22.151Z,4.70
2017-08-15T12:56:48.851Z,4.47
2017-08-15T12:59:15.532Z,4.57
2017-08-15T13:01:42.239Z,4.43
2017-08-15T13:04:08.938Z,4.60
2017-08-15T13:06:35.629Z,4.37
2017-08-15T13:09:02.317Z,4.73
2017-08-15T13:11:29.055Z,4.43
2017-08-15T13:13:55.729Z,4.10
2017-08-15T13:16:22.406Z,4.87
2017-08-15T13:18:49.088Z,4.90
2017-08-15T13:21:15.753Z,5.50
2017-08-15T13:23:42.431Z,5.40
2017-08-15T13:26:09.134Z,5.00
2017-08-15T13:28:35.896Z,4.87
2017-08-15T13:31:02.709Z,5.00
2017-08-15T13:33:29.407Z,6.40
2017-08-15T13:35:56.084Z,5.20
2017-08-15T13:38:22.800Z,5.50
2017-08-15T13:40:50.446Z,5.70
2017-08-15T13:43:17.438Z,5.70
2017-08-15T13:45:44.135Z,5.50
2017-08-15T13:48:10.983Z,5.20
2017-08-15T13:50:37.789Z,5.70
2017-08-15T13:53:04.583Z,5.60
2017-08-15T13:55:31.269Z,5.63
2017-08-15T13:57:57.946Z,5.10
2017-08-15T14:00:24.625Z,5.40
2017-08-15T14:02:51.401Z,5.67
2017-08-15T14:05:18.234Z,6.10
2017-08-15T14:07:45.158Z,6.00
2017-08-15T14:10:11.942Z,5.50
2017-08-15T14:12:38.720Z,5.33
2017-08-15T14:15:05.542Z,5.20
2017-08-15T14:17:32.245Z,5.40
2017-08-15T14:19:58.983Z,5.53
2017-08-15T14:22:25.669Z,5.30
2017-08-15T14:24:52.340Z,5.70
2017-08-15T14:27:19.103Z,4.57
2017-08-15T14:29:45.792Z,5.67
2017-08-15T14:32:12.488Z,5.13
2017-08-15T14:34:39.152Z,5.63
2017-08-15T14:37:05.888Z,4.53
2017-08-15T14:39:32.552Z,5.17
2017-08-15T14:41:59.310Z,5.47
2017-08-15T14:44:25.988Z,4.57
2017-08-15T14:46:52.658Z,5.00
2017-08-15T14:49:19.348Z,4.93
2017-08-15T14:51:46.026Z,4.77
2017-08-15T14:54:12.704Z,5.30
2017-08-15T14:56:39.378Z,4.70
2017-08-15T14:59:06.047Z,4.63
2017-08-15T15:01:32.713Z,4.70
2017-08-15T15:03:59.408Z,4.73
2017-08-15T15:06:26.084Z,4.70
2017-08-15T15:08:52.780Z,4.10
2017-08-15T15:11:19.498Z,4.50
2017-08-15T15:13:46.223Z,4.47
2017-08-15T15:16:12.920Z,4.93
2017-08-15T15:18:39.601Z,4.40
2017-08-15T15:21:06.272Z,5.00
2017-08-15T15:23:32.938Z,4.40
2017-08-15T15:25:59.608Z,5.30
2017-08-15T15:28:26.300Z,4.50
2017-08-15T15:30:53.063Z,4.70
2017-08-15T15:33:19.745Z,5.10
2017-08-15T15:35:46.444Z,4.60
2017-08-15T15:38:13.135Z,5.37
2017-08-15T15:40:39.876Z,5.00
2017-08-15T15:43:06.544Z,4.80
2017-08-15T15:45:33.217Z,4.27
2017-08-15T15:47:59.891Z,4.77
2017-08-15T15:50:26.571Z,4.97
2017-08-15T15:52:53.253Z,4.63
2017-08-15T15:55:20.016Z,4.57
2017-08-15T15:57:46.712Z,4.93
2017-08-15T16:00:13.383Z,5.10
2017-08-15T16:02:40.043Z,5.33
2017-08-15T16:05:06.724Z,4.80
2017-08-15T16:07:33.452Z,4.80
2017-08-15T16:10:00.136Z,4.53
2017-08-15T16:12:26.828Z,5.00
2017-08-15T16:14:53.514Z,4.80
2017-08-15T16:17:20.311Z,5.40
2017-08-15T16:19:47.003Z,5.17
2017-08-15T16:22:13.681Z,4.80
2017-08-15T16:24:40.402Z,5.03
2017-08-15T16:27:07.081Z,5.17
2017-08-15T16:29:33.749Z,4.80
2017-08-15T16:32:00.420Z,4.93
2017-08-15T16:34:27.100Z,5.17
2017-08-15T16:36:53.792Z,5.13
2017-08-15T16:39:20.470Z,4.97
2017-08-15T16:41:47.187Z,4.77
2017-08-15T16:44:13.913Z,5.70
2017-08-15T16:46:40.585Z,5.43
2017-08-15T16:49:07.249Z,5.23
2017-08-15T16:51:33.925Z,4.77
2017-08-15T16:54:00.594Z,4.87
2017-08-15T16:56:27.268Z,5.57
2017-08-15T16:58:53.958Z,4.90
2017-08-15T17:01:20.642Z,5.40
2017-08-15T17:03:47.317Z,5.37
2017-08-15T17:06:13.991Z,5.10
2017-08-15T17:08:40.660Z,5.93
2017-08-15T17:11:07.336Z,5.30
2017-08-15T17:13:34.031Z,5.40
2017-08-15T17:16:00.737Z,5.50
2017-08-15T17:18:27.424Z,5.10
2017-08-15T17:20:54.082Z,5.60
2017-08-15T17:23:20.818Z,6.30
2017-08-15T17:25:47.489Z,5.90
2017-08-15T17:28:14.164Z,6.50
2017-08-15T17:30:40.829Z,5.47
2017-08-15T17:33:07.503Z,6.23
2017-08-15T17:35:34.192Z,5.97
2017-08-15T17:38:01.672Z,6.20
2017-08-15T17:40:28.345Z,5.60
2017-08-15T17:42:55.031Z,5.93
2017-08-15T17:45:21.743Z,6.73
2017-08-15T17:47:48.464Z,6.53
2017-08-15T17:50:15.137Z,6.47
2017-08-15T17:52:41.806Z,7.03
2017-08-15T17:55:08.475Z,6.93
2017-08-15T17:57:35.166Z,6.07
2017-08-15T18:00:01.853Z,6.13
2017-08-15T18:02:28.525Z,7.10
2017-08-15T18:04:55.210Z,6.90
2017-08-15T18:07:21.905Z,7.70
2017-08-15T18:09:48.606Z,6.50
2017-08-15T18:12:15.285Z,7.27
2017-08-15T18:14:41.983Z,6.40
2017-08-15T18:17:08.652Z,7.33
2017-08-15T18:19:35.357Z,6.70
2017-08-15T18:22:02.107Z,7.57
2017-08-15T18:24:29.037Z,7.00
2017-08-15T18:26:55.704Z,6.37
2017-08-15T18:29:22.448Z,6.77
2017-08-15T18:31:49.149Z,6.60
2017-08-15T18:34:15.823Z,7.90
2017-08-15T18:36:42.496Z,7.70
2017-08-15T18:39:09.156Z,7.50
2017-08-15T18:41:35.843Z,7.57
2017-08-15T18:44:02.517Z,7.00
2017-08-15T18:46:29.221Z,7.03
2017-08-15T18:48:55.903Z,6.57
2017-08-15T18:51:22.596Z,7.50
2017-08-15T18:53:49.259Z,7.20
2017-08-15T18:56:15.964Z,6.73
2017-08-15T18:58:42.627Z,7.40
2017-08-15T19:01:09.304Z,7.10
2017-08-15T19:03:35.964Z,6.60
2017-08-15T19:06:02.625Z,6.70
2017-08-15T19:08:29.319Z,6.43
2017-08-15T19:10:55.984Z,6.63
2017-08-15T19:13:22.689Z,6.60
2017-08-15T19:15:49.409Z,5.80
2017-08-15T19:18:16.100Z,6.30
2017-08-15T19:20:42.772Z,6.37
2017-08-15T19:23:09.461Z,6.00
2017-08-15T19:25:36.144Z,6.50
2017-08-15T19:28:02.864Z,6.23
2017-08-15T19:30:29.534Z,6.20
2017-08-15T19:32:56.206Z,6.30
2017-08-15T19:35:22.869Z,7.43
2017-08-15T19:37:49.574Z,6.43
2017-08-15T19:40:16.266Z,6.70
2017-08-15T19:42:42.925Z,6.10
2017-08-15T19:45:09.607Z,6.37
2017-08-15T19:47:36.272Z,6.20
2017-08-15T19:50:02.971Z,5.80
2017-08-15T19:52:29.663Z,5.83
2017-08-15T19:54:56.359Z,6.20
2017-08-15T19:57:23.036Z,6.00
2017-08-15T19:59:49.699Z,6.23
2017-08-15T20:02:16.380Z,5.60
2017-08-15T20:04:43.060Z,4.80
2017-08-15T20:07:09.722Z,5.07
2017-08-15T20:09:36.375Z,5.20
2017-08-15T20:12:03.032Z,5.80
2017-08-15T20:14:29.705Z,5.90
2017-08-15T20:16:56.381Z,5.10
2017-08-15T20:19:23.061Z,5.00
2017-08-15T20:21:49.716Z,5.70
2017-08-15T20:24:16.383Z,5.10
2017-08-15T20:26:43.071Z,5.07
2017-08-15T20:29:09.737Z,5.10
2017-08-15T20:31:36.442Z,5.25
2017-08-15T20:34:03.110Z,5.00
2017-08-15T20:36:29.811Z,4.70
2017-08-15T20:38:56.470Z,5.33
2017-08-15T20:41:23.156Z,4.87
2017-08-15T20:43:49.884Z,4.70
2017-08-15T20:46:16.552Z,5.55
2017-08-15T20:48:43.229Z,5.00
2017-08-15T20:51:09.898Z,5.32
2017-08-15T20:53:36.569Z,5.53
2017-08-15T20:56:03.237Z,5.70
2017-08-15T20:58:29.915Z,5.47
2017-08-15T21:00:56.584Z,5.32
2017-08-15T21:03:23.318Z,5.18
2017-08-15T21:05:49.997Z,7.17
2017-08-15T21:08:16.737Z,6.40
2017-08-15T21:10:43.424Z,7.07
2017-08-15T21:13:10.141Z,5.90
2017-08-15T21:15:36.850Z,5.80
2017-08-15T21:18:03.520Z,5.87
2017-08-15T21:20:30.212Z,5.90
2017-08-15T21:22:56.875Z,6.50
2017-08-15T21:25:23.576Z,6.30
2017-08-15T21:27:50.274Z,6.45
2017-08-15T21:30:16.957Z,6.43
2017-08-15T21:32:43.642Z,5.78
2017-08-15T21:35:10.354Z,6.47
2017-08-15T21:37:37.035Z,6.53
2017-08-15T21:40:03.748Z,7.03
2017-08-15T21:42:30.464Z,5.82
2017-08-15T21:44:57.136Z,6.55
2017-08-15T21:47:23.828Z,6.47
2017-08-15T21:49:50.511Z,6.22
2017-08-15T21:52:17.207Z,6.45
2017-08-15T21:54:43.887Z,5.82
2017-08-15T21:57:10.554Z,6.10
2017-08-15T21:59:37.223Z,6.35
2017-08-15T22:02:09.500Z,5.60
2017-08-15T22:04:36.223Z,6.45
2017-08-15T22:07:02.905Z,5.22
2017-08-15T22:09:29.575Z,6.53
2017-08-15T22:11:56.255Z,5.62
2017-08-15T22:14:22.940Z,5.28
2017-08-15T22:16:49.650Z,6.43
2017-08-15T22:19:16.341Z,5.68
2017-08-15T22:21:43.090Z,5.32
2017-08-15T22:24:09.754Z,5.28
2017-08-15T22:26:36.426Z,5.35
2017-08-15T22:29:03.121Z,5.97
2017-08-15T22:31:29.829Z,5.75
2017-08-15T22:33:56.609Z,5.40
2017-08-15T22:36:23.312Z,5.50
2017-08-15T22:38:50.005Z,5.75
2017-08-15T22:41:16.728Z,5.57
2017-08-15T22:43:43.447Z,5.40
2017-08-15T22:46:10.131Z,6.03
2017-08-15T22:48:36.795Z,5.95
2017-08-15T22:51:03.478Z,5.62
2017-08-15T22:53:30.192Z,5.22
2017-08-15T22:55:56.900Z,5.00
2017-08-15T22:58:23.577Z,5.35
2017-08-15T23:00:50.251Z,4.87
2017-08-15T23:03:16.934Z,5.70
2017-08-15T23:05:43.596Z,5.60
2017-08-15T23:08:10.283Z,5.62
2017-08-15T23:10:36.970Z,5.12
2017-08-15T23:13:03.645Z,5.00
2017-08-15T23:15:30.315Z,5.45
2017-08-15T23:17:56.992Z,5.37
2017-08-15T23:20:23.698Z,5.25
2017-08-15T23:22:50.393Z,5.18
2017-08-15T23:25:17.064Z,4.82
2017-08-15T23:27:43.742Z,4.65
2017-08-15T23:30:10.427Z,4.53
2017-08-15T23:32:37.113Z,4.75
2017-08-15T23:35:03.835Z,4.75
2017-08-15T23:37:30.491Z,4.45
2017-08-15T23:39:57.215Z,4.70
2017-08-15T23:42:23.880Z,4.25
2017-08-15T23:44:50.559Z,5.60
2017-08-15T23:47:17.237Z,5.00
2017-08-15T23:49:43.909Z,5.03
2017-08-15T23:52:10.579Z,4.37
2017-08-15T23:54:37.256Z,5.25
2017-08-15T23:57:03.936Z,5.40
2017-08-15T23:59:30.605Z,5.28
